createdAt,value
2023-10-27T00:01:12.599Z,98760.81
2023-10-27T00:04:15.058Z,98735.91
2023-10-27T00:07:17.729Z,98752.03
2023-10-27T00:10:20.364Z,98744.03
2023-10-27T00:13:22.901Z,98744.41
2023-10-27T00:16:25.396Z,98728.47
2023-10-27T00:19:27.802Z,98733.38
2023-10-27T00:22:31.404Z,98713.41
2023-10-27T00:25:33.840Z,98709.78
2023-10-27T00:28:36.334Z,98697.03
2023-10-27T00:31:38.729Z,98709.78
2023-10-27T00:34:41.237Z,98716.63
2023-10-27T00:37:43.887Z,98680.69
2023-10-27T00:40:46.791Z,98674.72
2023-10-27T00:43:49.172Z,98682.00
2023-10-27T00:46:52.366Z,98679.28
2023-10-27T00:49:55.966Z,98695.03
2023-10-27T00:52:58.519Z,98671.22
2023-10-27T00:56:00.989Z,98684.81
2023-10-27T00:59:03.459Z,98692.09
2023-10-27T01:02:06.013Z,98684.03
2023-10-27T01:05:10.111Z,98687.63
2023-10-27T01:08:12.676Z,98690.28
2023-10-27T01:11:15.945Z,98694.47
2023-10-27T01:14:18.791Z,98677.53
2023-10-27T01:17:21.202Z,98684.53
2023-10-27T01:20:23.776Z,98661.28
2023-10-27T01:23:27.097Z,98680.47
2023-10-27T01:26:29.856Z,98694.34
2023-10-27T01:29:32.386Z,98651.13
2023-10-27T01:32:35.183Z,98666.38
2023-10-27T01:35:37.573Z,98668.50
2023-10-27T01:38:39.975Z,98650.19
2023-10-27T01:41:43.159Z,98644.53
2023-10-27T01:44:45.563Z,98660.63
2023-10-27T01:47:48.199Z,98670.16
2023-10-27T01:50:50.761Z,98641.31
2023-10-27T01:53:53.173Z,98655.59
2023-10-27T01:56:55.604Z,98644.72
2023-10-27T01:59:57.969Z,98644.31
2023-10-27T02:03:00.436Z,98637.66
2023-10-27T02:06:03.796Z,98632.69
2023-10-27T02:09:06.222Z,98623.00
2023-10-27T02:12:11.295Z,98614.88
2023-10-27T02:15:13.812Z,98629.78
2023-10-27T02:18:16.194Z,98633.97
2023-10-27T02:21:19.664Z,98613.13
2023-10-27T02:24:22.083Z,98582.50
2023-10-27T02:27:24.514Z,98610.31
2023-10-27T02:30:26.892Z,98601.41
2023-10-27T02:33:29.280Z,98612.13
2023-10-27T02:36:31.672Z,98607.06
2023-10-27T02:39:34.069Z,98610.41
2023-10-27T02:42:39.351Z,98584.59
2023-10-27T02:45:41.771Z,98598.19
2023-10-27T02:48:44.239Z,98595.19
2023-10-27T02:51:46.631Z,98593.91
2023-10-27T02:54:49.035Z,98597.75
2023-10-27T02:57:51.405Z,98576.91
2023-10-27T03:00:53.911Z,98579.63
2023-10-27T03:03:56.313Z,98567.84
2023-10-27T03:06:58.757Z,98573.16
2023-10-27T03:10:03.826Z,98557.50
2023-10-27T03:13:09.623Z,98579.06
2023-10-27T03:16:12.248Z,98577.69
2023-10-27T03:19:14.758Z,98556.00
2023-10-27T03:22:18.534Z,98558.03
2023-10-27T03:25:21.224Z,98550.00
2023-10-27T03:28:23.812Z,98515.38
2023-10-27T03:31:27.187Z,98520.31
2023-10-27T03:34:29.705Z,98522.50
2023-10-27T03:37:32.182Z,98533.25
2023-10-27T03:40:34.655Z,98518.25
2023-10-27T03:43:38.315Z,98513.47
2023-10-27T03:46:40.717Z,98522.06
2023-10-27T03:49:43.256Z,98491.81
2023-10-27T03:52:45.779Z,98494.69
2023-10-27T03:55:54.656Z,98479.69
2023-10-27T03:58:57.124Z,98454.00
2023-10-27T04:02:00.009Z,98488.84
2023-10-27T04:05:02.516Z,98467.09
2023-10-27T04:08:08.052Z,98463.09
2023-10-27T04:11:10.396Z,98450.41
2023-10-27T04:14:12.837Z,98439.22
2023-10-27T04:17:15.411Z,98442.84
2023-10-27T04:20:17.883Z,98434.50
2023-10-27T04:23:20.512Z,98423.50
2023-10-27T04:26:23.039Z,98442.19
2023-10-27T04:29:25.429Z,98428.91
2023-10-27T04:32:27.895Z,98413.47
2023-10-27T04:35:30.313Z,98412.84
2023-10-27T04:38:33.138Z,98413.91
2023-10-27T04:41:35.524Z,98410.59
2023-10-27T04:44:37.930Z,98397.44
2023-10-27T04:47:40.401Z,98395.84
2023-10-27T04:50:43.048Z,98373.53
2023-10-27T04:53:45.441Z,98363.94
2023-10-27T04:56:48.531Z,98353.84
2023-10-27T04:59:51.024Z,98349.38
2023-10-27T05:02:54.743Z,98368.84
2023-10-27T05:06:10.163Z,98357.50
2023-10-27T05:09:13.988Z,98338.97
2023-10-27T05:12:18.263Z,98317.41
2023-10-27T05:15:20.755Z,98335.13
2023-10-27T05:18:23.535Z,98325.63
2023-10-27T05:21:29.185Z,98334.81
2023-10-27T05:24:33.140Z,98321.94
2023-10-27T05:27:35.583Z,98314.28
2023-10-27T05:30:38.934Z,98301.41
2023-10-27T05:33:41.464Z,98305.81
2023-10-27T05:36:43.955Z,98286.53
2023-10-27T05:39:46.604Z,98294.00
2023-10-27T05:42:49.138Z,98301.06
2023-10-27T05:45:51.715Z,98295.53
2023-10-27T05:48:54.220Z,98283.78
2023-10-27T05:51:56.819Z,98279.72
2023-10-27T05:54:59.277Z,98274.34
2023-10-27T05:58:01.815Z,98281.50
2023-10-27T06:01:04.816Z,98271.88
2023-10-27T06:04:07.351Z,98278.44
2023-10-27T06:07:12.716Z,98255.53
2023-10-27T06:10:16.075Z,98251.19
2023-10-27T06:13:22.508Z,98256.56
2023-10-27T06:16:40.381Z,98221.88
2023-10-27T06:19:46.132Z,98223.06
2023-10-27T06:22:51.421Z,98207.34
2023-10-27T06:26:28.714Z,98253.50
2023-10-27T06:29:42.180Z,98197.88
2023-10-27T06:32:44.768Z,98211.34
2023-10-27T06:35:48.852Z,98180.94
2023-10-27T06:38:53.124Z,98199.41
2023-10-27T06:41:55.593Z,98195.59
2023-10-27T06:44:58.097Z,98202.16
2023-10-27T06:48:00.613Z,98200.94
2023-10-27T06:51:03.174Z,98197.63
2023-10-27T06:54:08.070Z,98190.88
2023-10-27T06:57:11.633Z,98188.53
2023-10-27T07:00:14.688Z,98163.44
2023-10-27T07:03:30.806Z,98196.94
2023-10-27T07:06:34.408Z,98185.28
2023-10-27T07:09:37.123Z,98204.84
2023-10-27T07:12:39.689Z,98170.34
2023-10-27T07:15:42.184Z,98172.75
2023-10-27T07:18:44.672Z,98162.97
2023-10-27T07:21:47.215Z,98145.63
2023-10-27T07:24:49.950Z,98141.41
2023-10-27T07:27:52.382Z,98137.16
2023-10-27T07:30:57.730Z,98159.19
2023-10-27T07:34:00.474Z,98132.63
2023-10-27T07:37:05.404Z,98136.31
2023-10-27T07:40:08.533Z,98152.19
2023-10-27T07:43:11.502Z,98134.06
2023-10-27T07:46:13.974Z,98116.41
2023-10-27T07:49:16.538Z,98129.69
2023-10-27T07:52:18.969Z,98125.59
2023-10-27T07:55:21.485Z,98111.72
2023-10-27T07:58:26.504Z,98126.09
2023-10-27T08:01:29.126Z,98112.78
2023-10-27T08:04:34.223Z,98111.31
2023-10-27T08:07:38.081Z,98103.41
2023-10-27T08:10:40.993Z,98105.16
2023-10-27T08:13:43.586Z,98084.47
2023-10-27T08:16:46.589Z,98077.63
2023-10-27T08:19:49.348Z,98054.94
2023-10-27T08:22:51.942Z,98052.56
2023-10-27T08:25:54.615Z,98061.75
2023-10-27T08:28:57.029Z,98056.13
2023-10-27T08:31:59.683Z,98051.88
2023-10-27T08:35:02.597Z,98025.03
2023-10-27T08:38:05.039Z,98029.72
2023-10-27T08:41:08.896Z,98018.56
2023-10-27T08:44:25.024Z,97998.97
2023-10-27T08:47:32.147Z,97980.97
2023-10-27T08:50:58.604Z,98017.91
2023-10-27T08:54:11.811Z,97984.63
2023-10-27T08:57:15.639Z,97976.75
2023-10-27T09:00:18.282Z,97956.97
2023-10-27T09:03:20.822Z,97938.44
2023-10-27T09:06:23.373Z,97966.63
2023-10-27T09:09:26.487Z,97940.38
2023-10-27T09:12:32.263Z,97943.03
2023-10-27T09:15:43.299Z,97959.22
2023-10-27T09:18:45.836Z,97936.16
2023-10-27T09:21:48.625Z,97941.84
2023-10-27T09:24:51.354Z,97944.22
2023-10-27T09:27:57.755Z,97928.81
2023-10-27T09:31:02.153Z,97911.63
2023-10-27T09:34:21.233Z,97918.56
2023-10-27T09:37:23.802Z,97906.59
2023-10-27T09:40:26.330Z,97891.78
2023-10-27T09:43:31.711Z,97892.81
2023-10-27T09:46:35.346Z,97880.78
2023-10-27T09:49:39.932Z,97869.84
2023-10-27T09:52:45.989Z,97886.34
2023-10-27T09:55:49.194Z,97846.81
2023-10-27T09:58:52.819Z,97850.69
2023-10-27T10:01:57.218Z,97841.59
2023-10-27T10:05:04.473Z,97821.44
2023-10-27T10:08:09.816Z,97842.72
2023-10-27T10:11:19.391Z,97811.41
2023-10-27T10:14:40.851Z,97835.13
2023-10-27T10:17:43.468Z,97821.63
2023-10-27T10:20:48.982Z,97828.94
2023-10-27T10:23:51.714Z,97828.06
2023-10-27T10:27:08.493Z,97811.81
2023-10-27T10:30:21.758Z,97812.28
2023-10-27T10:33:26.394Z,97798.25
2023-10-27T10:36:28.997Z,97776.81
2023-10-27T10:40:09.681Z,97774.34
2023-10-27T10:43:48.915Z,97778.84
2023-10-27T10:46:51.838Z,97777.44
2023-10-27T10:49:54.374Z,97757.69
2023-10-27T10:53:20.869Z,97767.44
2023-10-27T10:56:24.221Z,97784.47
2023-10-27T10:59:26.681Z,97769.75
2023-10-27T11:02:29.234Z,97780.97
2023-10-27T11:05:32.114Z,97784.50
2023-10-27T11:08:36.985Z,97789.09
2023-10-27T11:11:47.558Z,97797.75
2023-10-27T11:14:50.727Z,97795.66
2023-10-27T11:17:55.665Z,97793.16
2023-10-27T11:20:58.730Z,97807.88
2023-10-27T11:24:07.706Z,97805.78
2023-10-27T11:27:10.168Z,97819.25
2023-10-27T11:30:13.004Z,97790.59
2023-10-27T11:33:15.456Z,97802.44
2023-10-27T11:36:17.865Z,97825.53
2023-10-27T11:39:21.725Z,97829.41
2023-10-27T11:42:24.111Z,97859.63
2023-10-27T11:45:26.494Z,97870.81
2023-10-27T11:48:28.967Z,97845.38
2023-10-27T11:51:31.831Z,97817.94
2023-10-27T11:54:34.442Z,97762.47
2023-10-27T11:57:37.336Z,97782.44
2023-10-27T12:00:39.760Z,97794.69
2023-10-27T12:03:42.192Z,97803.13
2023-10-27T12:06:44.999Z,97788.69
2023-10-27T12:09:47.545Z,97758.50
2023-10-27T12:12:51.456Z,97740.09
2023-10-27T12:15:54.257Z,97779.19
2023-10-27T12:18:57.672Z,97827.03
2023-10-27T12:22:00.153Z,97836.44
2023-10-27T12:25:02.633Z,97864.03
2023-10-27T12:28:05.688Z,97880.84
2023-10-27T12:31:08.119Z,97884.44
2023-10-27T12:34:11.981Z,97851.56
2023-10-27T12:37:14.759Z,97854.69
2023-10-27T12:40:17.338Z,97877.34
2023-10-27T12:43:20.826Z,97868.50
2023-10-27T12:46:24.201Z,97870.84
2023-10-27T12:49:29.404Z,97905.22
2023-10-27T12:52:32.111Z,97900.41
2023-10-27T12:55:36.520Z,97922.25
2023-10-27T12:58:39.635Z,97914.50
2023-10-27T13:01:42.437Z,97897.00
2023-10-27T13:04:45.103Z,97906.19
2023-10-27T13:07:47.722Z,97880.91
2023-10-27T13:10:50.130Z,97913.38
2023-10-27T13:13:52.918Z,97941.69
2023-10-27T13:16:55.538Z,97965.97
2023-10-27T13:19:59.090Z,97950.09
2023-10-27T13:23:02.894Z,97943.38
2023-10-27T13:26:05.513Z,97803.09
2023-10-27T13:29:07.903Z,97920.50
2023-10-27T13:32:10.334Z,97959.91
2023-10-27T13:35:12.873Z,97984.50
2023-10-27T13:38:18.331Z,97959.97
2023-10-27T13:41:20.906Z,98029.25
2023-10-27T13:44:23.960Z,97966.38
2023-10-27T13:47:29.243Z,97962.41
2023-10-27T13:50:31.810Z,98011.22
2023-10-27T13:53:34.191Z,98000.88
2023-10-27T13:56:37.118Z,97986.13
2023-10-27T13:59:41.380Z,98008.53
2023-10-27T14:02:44.418Z,98013.88
2023-10-27T14:05:50.517Z,97997.72
2023-10-27T14:08:53.377Z,98018.47
2023-10-27T14:11:57.561Z,98028.38
2023-10-27T14:14:59.946Z,98038.44
2023-10-27T14:18:07.146Z,98047.16
2023-10-27T14:21:12.399Z,98075.06
2023-10-27T14:24:14.877Z,98081.16
2023-10-27T14:27:34.656Z,98075.38
2023-10-27T14:30:40.561Z,98096.09
2023-10-27T14:33:44.042Z,98114.09
2023-10-27T14:36:46.691Z,98113.78
2023-10-27T14:39:49.489Z,98096.66
2023-10-27T14:42:52.010Z,98103.81
2023-10-27T14:45:59.469Z,98100.75
2023-10-27T14:49:01.986Z,98112.50
2023-10-27T14:52:04.801Z,98111.13
2023-10-27T14:55:07.508Z,98111.44
2023-10-27T14:58:11.182Z,98131.22
2023-10-27T15:01:16.381Z,98139.91
2023-10-27T15:04:18.799Z,98171.78
2023-10-27T15:07:21.915Z,98158.03
2023-10-27T15:10:24.551Z,98169.91
2023-10-27T15:13:29.448Z,98182.72
2023-10-27T15:16:36.674Z,98215.91
2023-10-27T15:19:41.107Z,98206.91
2023-10-27T15:22:43.611Z,98185.72
2023-10-27T15:25:48.323Z,98203.25
2023-10-27T15:28:51.321Z,98188.88
2023-10-27T15:31:54.668Z,98172.31
2023-10-27T15:34:57.608Z,98221.47
2023-10-27T15:38:00.078Z,98175.13
2023-10-27T15:41:05.021Z,98214.00
2023-10-27T15:44:08.142Z,98203.88
2023-10-27T15:47:11.188Z,98220.13
2023-10-27T15:50:13.668Z,98212.47
2023-10-27T15:53:16.056Z,98224.91
2023-10-27T15:56:21.650Z,98238.31
2023-10-27T15:59:27.821Z,98255.53
2023-10-27T16:02:30.234Z,98254.00
2023-10-27T16:05:35.740Z,98287.03
2023-10-27T16:08:38.198Z,98297.56
2023-10-27T16:11:40.816Z,98313.81
2023-10-27T16:14:43.194Z,98337.09
2023-10-27T16:17:46.008Z,98330.31
2023-10-27T16:20:48.478Z,98360.16
2023-10-27T16:23:50.876Z,98369.03
2023-10-27T16:26:53.274Z,98391.97
2023-10-27T16:29:55.625Z,98403.03
2023-10-27T16:32:59.413Z,98380.53
2023-10-27T16:36:02.760Z,98410.91
2023-10-27T16:39:05.708Z,98411.13
2023-10-27T16:42:08.504Z,98431.53
2023-10-27T16:45:13.704Z,98419.47
2023-10-27T16:48:17.861Z,98433.06
2023-10-27T16:51:20.454Z,98416.19
2023-10-27T16:54:23.323Z,98431.19
2023-10-27T16:57:27.608Z,98439.88
2023-10-27T17:00:31.225Z,98434.81
2023-10-27T17:03:37.083Z,98432.63
2023-10-27T17:06:39.587Z,98453.69
2023-10-27T17:09:42.106Z,98457.28
2023-10-27T17:12:45.204Z,98453.91
2023-10-27T17:15:47.676Z,98468.59
2023-10-27T17:18:50.089Z,98472.31
2023-10-27T17:21:52.460Z,98449.94
2023-10-27T17:24:58.120Z,98483.72
2023-10-27T17:28:01.335Z,98494.56
2023-10-27T17:31:05.149Z,98488.84
2023-10-27T17:34:07.646Z,98487.09
2023-10-27T17:37:10.957Z,98478.66
2023-10-27T17:40:14.202Z,98503.31
2023-10-27T17:43:17.323Z,98495.84
2023-10-27T17:46:23.760Z,98492.22
2023-10-27T17:49:27.829Z,98515.16
2023-10-27T17:52:30.359Z,98528.63
2023-10-27T17:55:34.110Z,98533.88
2023-10-27T17:58:37.488Z,98571.25
2023-10-27T18:01:39.915Z,98562.91
2023-10-27T18:04:42.466Z,98585.81
2023-10-27T18:07:48.408Z,98600.94
2023-10-27T18:10:54.277Z,98606.75
2023-10-27T18:13:58.115Z,98629.09
2023-10-27T18:17:02.043Z,98648.78
2023-10-27T18:20:07.720Z,98647.34
2023-10-27T18:23:11.075Z,98665.56
2023-10-27T18:26:21.424Z,98658.31
2023-10-27T18:29:23.801Z,98679.78
2023-10-27T18:32:26.266Z,98678.59
2023-10-27T18:35:32.126Z,98672.84
2023-10-27T18:38:34.636Z,98685.00
2023-10-27T18:41:38.862Z,98681.41
2023-10-27T18:44:41.659Z,98694.78
2023-10-27T18:47:44.913Z,98703.06
2023-10-27T18:50:54.456Z,98692.47
2023-10-27T18:53:56.826Z,98703.84
2023-10-27T18:56:59.695Z,98721.03
2023-10-27T19:00:05.820Z,98731.22
2023-10-27T19:03:09.408Z,98722.06
2023-10-27T19:06:13.521Z,98725.06
2023-10-27T19:09:16.216Z,98733.03
2023-10-27T19:12:19.012Z,98718.56
2023-10-27T19:15:23.194Z,98731.56
2023-10-27T19:18:27.652Z,98747.56
2023-10-27T19:21:30.138Z,98767.44
2023-10-27T19:24:32.588Z,98752.97
2023-10-27T19:27:38.561Z,98751.19
2023-10-27T19:30:48.953Z,98759.38
2023-10-27T19:33:51.555Z,98746.84
2023-10-27T19:36:54.125Z,98779.41
2023-10-27T19:39:57.400Z,98772.81
2023-10-27T19:43:00.025Z,98796.09
2023-10-27T19:46:07.834Z,98810.63
2023-10-27T19:49:14.168Z,98811.34
2023-10-27T19:52:17.215Z,98827.41
2023-10-27T19:55:19.748Z,98842.31
2023-10-27T19:58:22.196Z,98826.47
2023-10-27T20:01:27.014Z,98836.56
2023-10-27T20:04:30.562Z,98819.91
2023-10-27T20:07:33.178Z,98853.41
2023-10-27T20:10:37.206Z,98851.88
2023-10-27T20:13:45.219Z,98846.13
2023-10-27T20:16:47.759Z,98860.16
2023-10-27T20:19:50.256Z,98878.47
2023-10-27T20:22:53.008Z,98897.56
2023-10-27T20:25:55.952Z,98878.06
2023-10-27T20:28:59.769Z,98889.78
2023-10-27T20:32:02.207Z,98885.06
2023-10-27T20:35:05.941Z,98872.78
2023-10-27T20:38:08.773Z,98890.69
2023-10-27T20:41:11.141Z,98901.22
2023-10-27T20:44:13.530Z,98895.31
2023-10-27T20:47:15.958Z,98875.09
2023-10-27T20:50:20.181Z,98900.88
2023-10-27T20:53:23.616Z,98911.06
2023-10-27T20:56:26.148Z,98916.56
2023-10-27T20:59:28.740Z,98907.16
2023-10-27T21:02:31.343Z,98924.00
2023-10-27T21:05:34.927Z,98919.31
2023-10-27T21:08:42.516Z,98932.56
2023-10-27T21:11:45.165Z,98920.22
2023-10-27T21:14:47.696Z,98954.13
2023-10-27T21:17:50.160Z,98949.84
2023-10-27T21:20:52.528Z,98934.25
2023-10-27T21:23:54.900Z,98928.50
2023-10-27T21:26:57.292Z,98941.78
2023-10-27T21:29:59.704Z,98952.66
2023-10-27T21:33:02.467Z,98953.50
2023-10-27T21:36:09.416Z,98955.81
2023-10-27T21:39:11.899Z,98967.94
2023-10-27T21:42:14.274Z,98965.34
2023-10-27T21:45:16.712Z,98963.25
2023-10-27T21:48:21.392Z,98967.94
2023-10-27T21:51:23.944Z,98975.53
2023-10-27T21:54:26.342Z,98985.69
2023-10-27T21:57:28.717Z,98994.31
2023-10-27T22:00:40.805Z,99014.13
2023-10-27T22:03:44.120Z,98987.72
2023-10-27T22:06:47.838Z,98997.78
2023-10-27T22:09:50.341Z,99002.88
2023-10-27T22:12:52.807Z,99003.72
2023-10-27T22:15:55.608Z,99025.19
2023-10-27T22:18:58.061Z,99022.88
2023-10-27T22:22:00.449Z,99002.25
2023-10-27T22:25:03.794Z,98999.56
2023-10-27T22:28:16.323Z,99022.25
2023-10-27T22:31:19.079Z,99031.88
2023-10-27T22:34:21.645Z,99030.69
2023-10-27T22:37:24.097Z,99031.88
2023-10-27T22:40:30.274Z,99035.03
2023-10-27T22:43:32.646Z,99022.59
2023-10-27T22:46:35.942Z,99024.13
2023-10-27T22:49:38.876Z,99023.44
2023-10-27T22:52:41.512Z,99012.97
2023-10-27T22:55:47.607Z,99011.78
2023-10-27T22:58:50.174Z,99019.50
2023-10-27T23:01:52.599Z,99021.81
2023-10-27T23:04:56.280Z,99013.31
2023-10-27T23:07:59.145Z,99038.25
2023-10-27T23:11:09.768Z,99028.91
2023-10-27T23:14:13.136Z,99027.41
2023-10-27T23:17:15.617Z,99020.75
2023-10-27T23:20:18.575Z,99027.34
2023-10-27T23:23:20.974Z,99031.22
2023-10-27T23:26:23.530Z,99025.03
2023-10-27T23:29:26.654Z,99025.81
2023-10-27T23:32:29.020Z,98998.53
2023-10-27T23:35:32.935Z,99048.53
2023-10-27T23:38:39.678Z,99038.72
2023-10-27T23:41:42.102Z,99060.19
2023-10-27T23:44:45.750Z,99051.28
2023-10-27T23:47:48.224Z,99052.81
2023-10-27T23:50:50.899Z,99058.75
2023-10-27T23:53:54.192Z,99063.88
2023-10-27T23:56:56.569Z,99092.31
2023-10-27T23:59:58.952Z,99093.91
